This is the latest recevied weather packets stored in our database for station/object K9RCP-24. If no packets are shown the sender has not sent any weather packets the latest 10 day(s).
| Time | Temp. | Humidity | Pressure | Rain* | Wind** | Luminosity | Snow |
|---|---|---|---|---|---|---|---|
| 1777869479 | 26.11° C | 35% | 1010.5 hPa | 0 mm | - | - | - |
| 1777869331 | 26.11° C | 35% | 1010.5 hPa | 0 mm | - | - | - |
| 1777868571 | 25.56° C | 36% | 1010.2 hPa | 0 mm | - | - | - |
| 1777868549 | 25° C | 38% | 1010.5 hPa | 0 mm | - | - | - |
| 1777867793 | 25.56° C | 37% | 1010.5 hPa | 0 mm | - | - | - |
| 1777867545 | 25.56° C | 37% | 1010.2 hPa | 0 mm | - | - | - |
| 1777866596 | 25.56° C | 35% | 1010.2 hPa | 0 mm | - | - | - |
| 1777864690 | 25° C | 38% | 1009.8 hPa | 0 mm | - | - | - |
| 1777862014 | 28.89° C | 33% | 1009.5 hPa | 0 mm | - | - | - |
| 1777861759 | 30° C | 32% | 1009.5 hPa | 0 mm | - | - | - |
| 1777860576 | 31.11° C | 26% | 1009.5 hPa | 0 mm | - | - | - |
| 1777860314 | 31.11° C | 25% | 1009.5 hPa | 0 mm | - | - | - |
| 1777860152 | 31.67° C | 23% | 1009.8 hPa | 0 mm | - | - | - |
| 1777859864 | 31.67° C | 23% | 1009.8 hPa | 0 mm | - | - | - |
| 1777859134 | 32.22° C | 23% | 1010.2 hPa | 0 mm | - | - | - |
| 1777857503 | 32.78° C | 23% | 1009.8 hPa | 0 mm | - | - | - |
| 1777856579 | 32.78° C | 23% | 1010.2 hPa | 0 mm | - | - | - |
| 1777855888 | 33.33° C | 23% | 1010.2 hPa | 0 mm | - | - | - |
| 1777854260 | 32.78° C | 24% | 1010.2 hPa | 0 mm | - | - | - |
| 1777854137 | 32.78° C | 24% | 1010.5 hPa | 0 mm | - | - | - |
| 1777853510 | 32.78° C | 24% | 1010.2 hPa | 0 mm | - | - | - |
| 1777853262 | 32.78° C | 24% | 1010.2 hPa | 0 mm | - | - | - |
| 1777853136 | 32.78° C | 24% | 1010.2 hPa | 0 mm | - | - | - |
| 1777852888 | 33.33° C | 24% | 1010.2 hPa | 0 mm | - | - | - |
| 1777852514 | 32.78° C | 25% | 1010.2 hPa | 0 mm | - | - | - |
* Rain latest hour (hover to see other rain measurements)
** Current wind speed in m/s (hover to see current wind gust speed)